TimeCST,TemperatureF,Dew PointF,Humidity,Sea Level PressureIn,VisibilityMPH,Wind Direction,Wind SpeedMPH,Gust SpeedMPH,PrecipitationIn,Events,Conditions,WindDirDegrees,DateUTC
12:44 AM,59.0,55.4,88,29.83,6.0,SE,15.0,-,N/A,,Overcast,130,2013-02-07 06:44:00
12:53 AM,59.0,55.9,90,29.82,6.0,SE,15.0,-,N/A,,Overcast,130,2013-02-07 06:53:00
1:53 AM,59.0,55.9,90,29.80,6.0,SE,13.8,-,N/A,,Overcast,140,2013-02-07 07:53:00
2:53 AM,59.0,55.9,90,29.79,6.0,SE,12.7,-,N/A,,Overcast,140,2013-02-07 08:53:00
3:01 AM,59.0,55.4,88,29.80,6.0,SE,11.5,-,N/A,,Overcast,130,2013-02-07 09:01:00
3:22 AM,59.0,55.4,88,29.80,6.0,SE,11.5,-,N/A,,Overcast,140,2013-02-07 09:22:00
3:53 AM,60.1,57.0,90,29.77,9.0,SSE,16.1,-,N/A,,Overcast,150,2013-02-07 09:53:00
4:53 AM,59.0,55.9,90,29.75,10.0,SSE,16.1,20.7,N/A,,Mostly Cloudy,150,2013-02-07 10:53:00
5:11 AM,59.0,55.4,88,29.77,10.0,SSE,11.5,-,N/A,,Partly Cloudy,150,2013-02-07 11:11:00
5:53 AM,57.0,55.0,93,29.77,10.0,SE,5.8,-,N/A,,Mostly Cloudy,140,2013-02-07 11:53:00
6:35 AM,55.4,53.6,94,29.78,8.0,SE,9.2,-,N/A,,Scattered Clouds,140,2013-02-07 12:35:00
6:53 AM,55.9,54.0,93,29.77,8.0,SSE,9.2,-,N/A,,Clear,150,2013-02-07 12:53:00
7:53 AM,54.0,53.1,97,29.78,8.0,SSE,5.8,-,N/A,,Partly Cloudy,160,2013-02-07 13:53:00
8:31 AM,55.4,53.6,94,29.80,8.0,SSE,6.9,-,N/A,,Scattered Clouds,160,2013-02-07 14:31:00
8:53 AM,57.9,55.0,90,29.80,10.0,South,6.9,-,N/A,,Partly Cloudy,180,2013-02-07 14:53:00
10:24 AM,60.8,51.8,72,29.84,10.0,North,8.1,-,N/A,,Scattered Clouds,10,2013-02-07 16:24:00
10:53 AM,64.0,53.1,67,29.83,10.0,NNE,13.8,-,N/A,,Mostly Cloudy,20,2013-02-07 16:53:00
11:02 AM,64.4,51.8,64,29.84,10.0,NNE,12.7,-,N/A,,Partly Cloudy,30,2013-02-07 17:02:00
11:53 AM,66.9,51.1,57,29.85,10.0,North,18.4,24.2,N/A,,Scattered Clouds,350,2013-02-07 17:53:00
12:53 PM,61.0,51.1,70,29.87,10.0,North,33.4,39.1,N/A,,Overcast,10,2013-02-07 18:53:00
1:53 PM,61.0,46.9,60,29.90,10.0,North,29.9,36.8,N/A,,Overcast,360,2013-02-07 19:53:00
2:53 PM,60.1,45.0,57,29.92,10.0,North,27.6,36.8,N/A,,Overcast,10,2013-02-07 20:53:00
3:53 PM,59.0,46.0,62,29.96,10.0,North,21.9,31.1,N/A,,Mostly Cloudy,360,2013-02-07 21:53:00
4:00 PM,57.2,44.6,63,29.98,10.0,North,23.0,31.1,N/A,,Mostly Cloudy,350,2013-02-07 22:00:00
4:10 PM,57.2,44.6,63,29.99,10.0,North,21.9,35.7,N/A,,Mostly Cloudy,360,2013-02-07 22:10:00
4:53 PM,55.9,43.0,62,30.01,10.0,North,23.0,31.1,N/A,,Overcast,350,2013-02-07 22:53:00
5:53 PM,54.0,39.9,59,30.04,10.0,North,18.4,31.1,N/A,,Partly Cloudy,10,2013-02-07 23:53:00
6:53 PM,52.0,39.0,61,30.07,10.0,North,13.8,19.6,N/A,,Clear,350,2013-02-08 00:53:00
7:53 PM,50.0,34.0,54,30.10,10.0,North,11.5,-,N/A,,Clear,350,2013-02-08 01:53:00
8:53 PM,48.9,33.1,54,30.13,10.0,North,10.4,-,N/A,,Clear,350,2013-02-08 02:53:00
9:53 PM,46.9,33.1,59,30.16,10.0,NNW,6.9,-,N/A,,Clear,340,2013-02-08 03:53:00
10:53 PM,46.9,33.1,59,30.17,10.0,North,12.7,-,N/A,,Clear,360,2013-02-08 04:53:00
11:53 PM,46.0,32.0,58,30.19,10.0,North,11.5,-,N/A,,Clear,350,2013-02-08 05:53:00